Crownsville, Maryland
Current Conditions -  °F | °C
As of 1:54 AM on Friday 28 Nov 2014 (Local Time) from KNAK Reporting Station
Clear Clear  
Wind Chill: 30°   Ceiling: Unl
Heat Index: 37°   Visibility: 10mi
Dew Point: 25°   Wind: 10mph
Humidity: 62%   Direction: 300°WNW
Pressure: 30.17"   Gusts: NA
Location:  39.03°N, 76.6°W
Report Text: KNAK 280654Z AUTO 30009KT 10SM CLR 03/M04 A3017 RMK AO2 SLP218 T00281039 $
Loading
Personal Weather Stations






























Interactive Weather Map New forecast layout! Learn more

10-Day Weather Forecast

Advertisements
Track Severe Weather on mobile